Atlanta, Georgia
Traffic Map
Current Weather Conditions
Atlanta, Georgia
Broken Clouds
Broken Clouds
60°
Feels Like: 60°
Wind Chill: 60° Ceiling: 25000
Heat Index: 60° Visibility: 10mi
Dew Point: 37° Wind: 9mph
Humidity: 42% Direction: 140° (SE)
Pressure: 30.31in Gusts: 0mph
Raw Report DataKATL 221652Z 14008KT 110V170 10SM FEW150 FEW200 BKN250 16/03 A3031 RMK AO2 SLP263 T01560028
Traffic Incident Summary
Active as of:
Severity:
Category:
InformationThere was an issue retrieving the traffic information for this location. Please try a different location or try again shortly.
Advertisements